Colton, WA

2:09 AM PST on January 30, 2015 (GMT -0800)
Lewiston-Nez Perce County | Change Station
CLOSE
Current Station
Airport
Location: Lewiston,
Elevation: 1437 ft
Nearby Weather Stations
Active Advisory: Dense Fog Advisory

Elev 1437 ft 46.37 °N, 117.02 °W | Updated 13 minutes ago

Fog
Fog
38 °F
Feels Like 38 °F
N
0
Wind Variable Wind from North

Today
High -- | Low -- °F
--% Chance of Precip.
Yesterday
High -- | Low -- °F
Precip. -- in
7:14 AM 4:49 PM
Waxing Gibbous, 81% visible
Pressure 30.42 in
Visibility 8.0 miles
Clouds Overcast 700 ft
Dew Point 35 °F
Humidity 89%
Rainfall 0.00 in
Snow Depth Not available.
UV 0 out of 12
Pollen 1.70 out of 12
Air Quality Not available.
Flu Activity Not available.
METAR KLWS 300956Z AUTO 00000KT 8SM OVC007 03/02 A3038 RMK AO2 SLP301 T00330017

More Conditions Fewer Conditions

Pressure 30.42 in
Visibility 8.0 miles
Clouds Overcast 700 ft
Dew Point 35 °F
Humidity 89%
Rainfall 0.00 in
Snow Depth Not available.
UV 0 out of 12
Pollen 1.70 out of 12
Air Quality Not available.
Flu Activity Not available.
METAR KLWS 300956Z AUTO 00000KT 8SM OVC007 03/02 A3038 RMK AO2 SLP301 T00330017

More Conditions Fewer Conditions

10-Day Weather Forecast

Almanac

Astronomy

Jan. 30, 2015 Rise Set
Actual Time
Civil Twilight
Nautical Twilight
Astronomical Twilight
Moon
Length of Visible Light
Length of Day
Tomorrow will be .
, % of the Moon is Illuminated

Today's Extremes

State Highs State Lows

Community

WunderPhotos

Upload Photos

1,791,736 photos uploaded!

WunderBlogs® & News

Nearby

Air Quality

  Air Quality AQ Index Pollutant
Not available.

Snow Depth

Station Depth Elevation

Earthquake Activity

City Distance Mag. Time & Date
Minimum magnitude displayed is 2.5.

Coastal Water Temperatures

Place Temperature

Nearby Weather Stations